Terminal Aerodrome Forecast
Issued by NWS

Home | Current Version | Previous Version | Text Only | Print | Product List | Glossary Off
Versions: 1 2 3 4 5 6 7 8 9 10 11 12 13 14 15 16 17

080
FTUS43 KGRB 181133
TAFAUW
TAF
KAUW 181133Z 1812/1912 29007KT P6SM FEW250 WS014/32030KT
     FM181800 27006KT P6SM FEW250
     FM190700 31004KT 5SM BR SCT150=

USA.gov is the U.S. government's official web portal to all federal, state and local government web resources and services.